Flight Track Log - Related Links

Times and Time Zones

All times are in EDT time to prevent confusion due to time zone crossing. See the VH-YNA flight status page for this flight to view local times or setup timezone preferences in your user account.

Time Position Orientation Groundspeed Altitude Reporting Facility
EDT Latitude Longitude Course Direction KTS MPH feet Rate Location/Type
Tue 08:38:14 AM -30.8800 116.7283 195° South 4,000  Level Aus ATC (Calculated)
Tue 08:38:58 AM -30.8800 116.7283 195° South 4,000 165 Level Aus ATC (Calculated)
Tue 08:41:22 AM -30.9467 116.6808 193° South 4,000 207 Level Aus ATC (Calculated)
Tue 08:41:52 AM -31.7320 116.4651 240° Southwest 128 147 4,600 424 Climbing Aus ATC (RADAR)
Tue 08:42:47 AM -31.7482 116.4315 240° Southwest 127 146 4,600  Level Aus ATC (RADAR)
Tue 08:43:17 AM -31.7574 116.4125 240° Southwest 131 151 4,600 -94 Level Aus ATC (RADAR)
Tue 08:43:51 AM -31.7691 116.3914 237° Southwest 131 151 4,500 -81 Descending Aus ATC (RADAR)
Tue 08:44:31 AM -31.7814 116.3660 240° Southwest 133 153 4,500  Level Aus ATC (RADAR)
Tue 08:45:01 AM -31.7893 116.3470 244° Southwest 128 147 4,500  Level Aus ATC (RADAR)
Tue 08:45:36 AM -31.7980 116.3255 244° Southwest 122 140 4,500  Level Aus ATC (RADAR)
Tue 08:46:16 AM -31.8084 116.3017 243° Southwest 121 139 4,500  Level Aus ATC (RADAR)
Tue 08:46:46 AM -31.8159 116.2836 244° Southwest 121 139 4,500  Level Aus ATC (RADAR)
Tue 08:47:31 AM -31.8275 116.2563 243° Southwest 122 140 4,500  Level Aus ATC (RADAR)
Tue 08:48:01 AM -31.8351 116.2383 244° Southwest 123 142 4,500  Level Aus ATC (RADAR)
Tue 08:48:36 AM -31.8440 116.2179 243° Southwest 120 138 4,500  Level Aus ATC (RADAR)
Tue 08:49:06 AM -31.8524 116.1999 241° Southwest 123 142 4,500  Level Aus ATC (RADAR)
Tue 08:49:46 AM -31.8599 116.1738 251° West 123 142 4,500 -80 Level Aus ATC (RADAR)
Tue 08:50:21 AM -31.8658 116.1512 253° West 121 139 4,400 -400 Descending Aus ATC (RADAR)
Tue 08:51:01 AM -31.8728 116.1250 253° West 123 142 4,000 -343 Descending Aus ATC (RADAR)
Tue 08:51:31 AM -31.8787 116.1048 251° West 127 146 4,000  Level Aus ATC (RADAR)
Tue 08:52:06 AM -31.8857 116.0823 250° West 123 142 4,000 71 Level Aus ATC (RADAR)
Tue 08:52:55 AM -31.8945 116.0510 252° West 118 136 4,100 71 Climbing Aus ATC (RADAR)
Tue 08:53:30 AM -31.9010 116.0291 251° West 120 138 4,100 -92 Level Aus ATC (RADAR)
Tue 08:54:00 AM -31.9070 116.0099 250° West 123 142 4,000 -86 Descending Aus ATC (RADAR)
Tue 08:54:40 AM -31.9142 115.9844 252° West 121 139 4,000 80 Level Aus ATC (RADAR)
Tue 08:55:15 AM -31.9205 115.9622 252° West 118 136 4,100 92 Climbing Aus ATC (RADAR)
Tue 08:55:45 AM -31.9257 115.9438 251° West 117 135 4,100 -86 Level Aus ATC (RADAR)
Tue 08:56:25 AM -31.9325 115.9183 252° West 119 137 4,000 -86 Descending Aus ATC (RADAR)
Tue 08:56:55 AM -31.9384 115.8988 251° West 124 143 4,000 -429 Level Aus ATC (RADAR)
Tue 08:57:35 AM -31.9453 115.8723 253° West 123 142 3,500 -686 Descending Aus ATC (RADAR)
Tue 08:58:05 AM -31.9496 115.8525 256° West 121 139 3,200 -646 Descending Aus ATC (RADAR)
Tue 08:58:40 AM -31.9639 115.8369 223° Southwest 126 145 2,800 -738 Descending Aus ATC (RADAR)
Tue 08:59:10 AM -31.9800 115.8417 166° South 121 139 2,400 -686 Descending Aus ATC (RADAR)
Tue 08:59:50 AM -31.9999 115.8490 163° South 113 130 2,000 -514 Descending Aus ATC (RADAR)
Tue 09:00:55 AM -32.0325 115.8623 161° South 113 130 1,500 -192 Descending Aus ATC (RADAR)
Tue 09:01:55 AM -32.0625 115.8727 164° South 114 131 1,600  Climbing Aus ATC (RADAR)
Tue 09:03:05 AM -32.1007 115.8735 179° South 121 139 1,500 -86 Descending Aus ATC (RADAR)

Login

Don't have an account? Register now (free) for customized features, flight alerts, and more!